sensor_id;sensor_type;location;lat;lon;timestamp;pressure;altitude;pressure_sealevel;temperature;humidity
84413;BME280;74611;53.106;8.778;2024-02-26T00:00:27;100523.78;;;2.53;89.76
84413;BME280;74611;53.106;8.778;2024-02-26T00:02:54;100522.81;;;2.54;89.88
84413;BME280;74611;53.106;8.778;2024-02-26T00:05:19;100523.22;;;2.49;89.76
84413;BME280;74611;53.106;8.778;2024-02-26T00:07:45;100522.38;;;2.49;89.95
84413;BME280;74611;53.106;8.778;2024-02-26T00:10:10;100510.69;;;2.51;89.78
84413;BME280;74611;53.106;8.778;2024-02-26T00:12:36;100517.09;;;2.49;89.29
84413;BME280;74611;53.106;8.778;2024-02-26T00:15:02;100512.22;;;2.44;89.67
84413;BME280;74611;53.106;8.778;2024-02-26T00:17:28;100518.50;;;2.43;89.90
84413;BME280;74611;53.106;8.778;2024-02-26T00:19:53;100514.47;;;2.39;89.54
84413;BME280;74611;53.106;8.778;2024-02-26T00:22:19;100515.59;;;2.37;89.92
84413;BME280;74611;53.106;8.778;2024-02-26T00:24:44;100523.78;;;2.34;89.45
84413;BME280;74611;53.106;8.778;2024-02-26T00:27:10;100517.13;;;2.29;89.67
84413;BME280;74611;53.106;8.778;2024-02-26T00:29:35;100515.44;;;2.28;89.63
84413;BME280;74611;53.106;8.778;2024-02-26T00:32:01;100509.75;;;2.23;89.87
84413;BME280;74611;53.106;8.778;2024-02-26T00:34:27;100511.13;;;2.18;89.62
84413;BME280;74611;53.106;8.778;2024-02-26T00:36:52;100512.09;;;2.17;90.01
84413;BME280;74611;53.106;8.778;2024-02-26T00:39:17;100508.63;;;2.16;89.94
84413;BME280;74611;53.106;8.778;2024-02-26T00:41:43;100506.13;;;2.15;90.07
84413;BME280;74611;53.106;8.778;2024-02-26T00:44:08;100508.50;;;2.08;90.58
84413;BME280;74611;53.106;8.778;2024-02-26T00:46:34;100505.16;;;2.06;89.77
84413;BME280;74611;53.106;8.778;2024-02-26T00:48:59;100504.47;;;2.04;90.30
84413;BME280;74611;53.106;8.778;2024-02-26T00:51:25;100498.88;;;1.98;91.13
84413;BME280;74611;53.106;8.778;2024-02-26T00:53:51;100504.03;;;1.99;90.35
84413;BME280;74611;53.106;8.778;2024-02-26T00:56:16;100504.16;;;1.98;89.96
84413;BME280;74611;53.106;8.778;2024-02-26T00:58:42;100500.69;;;1.97;90.37
84413;BME280;74611;53.106;8.778;2024-02-26T01:01:08;100494.81;;;1.94;90.70
84413;BME280;74611;53.106;8.778;2024-02-26T01:03:33;100505.09;;;1.87;90.73
84413;BME280;74611;53.106;8.778;2024-02-26T01:05:59;100501.34;;;1.90;90.13
84413;BME280;74611;53.106;8.778;2024-02-26T01:08:24;100506.66;;;1.90;90.15
84413;BME280;74611;53.106;8.778;2024-02-26T01:10:50;100501.38;;;1.80;90.60
84413;BME280;74611;53.106;8.778;2024-02-26T01:13:15;100495.25;;;1.80;90.56
84413;BME280;74611;53.106;8.778;2024-02-26T01:15:41;100498.97;;;1.77;90.01
84413;BME280;74611;53.106;8.778;2024-02-26T01:18:09;100493.16;;;1.74;90.19
84413;BME280;74611;53.106;8.778;2024-02-26T01:20:34;100501.63;;;1.77;90.37
84413;BME280;74611;53.106;8.778;2024-02-26T01:23:00;100503.72;;;1.74;89.75
84413;BME280;74611;53.106;8.778;2024-02-26T01:25:25;100503.28;;;1.69;89.89
84413;BME280;74611;53.106;8.778;2024-02-26T01:27:51;100499.94;;;1.67;90.27
84413;BME280;74611;53.106;8.778;2024-02-26T01:30:16;100500.50;;;1.61;90.93
84413;BME280;74611;53.106;8.778;2024-02-26T01:32:42;100500.59;;;1.59;90.35
84413;BME280;74611;53.106;8.778;2024-02-26T01:35:08;100499.91;;;1.57;90.60
84413;BME280;74611;53.106;8.778;2024-02-26T01:37:36;100500.06;;;1.56;90.70
84413;BME280;74611;53.106;8.778;2024-02-26T01:40:02;100500.06;;;1.56;90.69
84413;BME280;74611;53.106;8.778;2024-02-26T01:42:31;100507.53;;;1.50;90.19
84413;BME280;74611;53.106;8.778;2024-02-26T01:44:57;100502.66;;;1.46;90.42
84413;BME280;74611;53.106;8.778;2024-02-26T01:47:23;100498.75;;;1.40;91.40
84413;BME280;74611;53.106;8.778;2024-02-26T01:49:49;100501.25;;;1.32;92.85
84413;BME280;74611;53.106;8.778;2024-02-26T01:52:15;100496.91;;;1.31;93.30
84413;BME280;74611;53.106;8.778;2024-02-26T01:54:42;100493.72;;;1.28;92.93
84413;BME280;74611;53.106;8.778;2024-02-26T01:57:11;100493.72;;;1.28;93.72
84413;BME280;74611;53.106;8.778;2024-02-26T01:59:39;100499.72;;;1.30;92.54
84413;BME280;74611;53.106;8.778;2024-02-26T02:02:07;100503.00;;;1.22;92.62
84413;BME280;74611;53.106;8.778;2024-02-26T02:04:35;100492.13;;;1.16;93.81
84413;BME280;74611;53.106;8.778;2024-02-26T02:07:01;100493.53;;;1.20;93.79
84413;BME280;74611;53.106;8.778;2024-02-26T02:09:27;100505.38;;;1.25;90.85
84413;BME280;74611;53.106;8.778;2024-02-26T02:11:53;100507.31;;;1.23;91.00
84413;BME280;74611;53.106;8.778;2024-02-26T02:14:19;100508.97;;;1.24;90.61
84413;BME280;74611;53.106;8.778;2024-02-26T02:16:45;100511.50;;;1.26;90.48
84413;BME280;74611;53.106;8.778;2024-02-26T02:19:11;100513.56;;;1.22;91.14
84413;BME280;74611;53.106;8.778;2024-02-26T02:21:36;100510.22;;;1.20;91.70
84413;BME280;74611;53.106;8.778;2024-02-26T02:24:02;100512.56;;;1.14;91.61
84413;BME280;74611;53.106;8.778;2024-02-26T02:26:27;100522.41;;;1.12;91.49
84413;BME280;74611;53.106;8.778;2024-02-26T02:28:53;100513.09;;;1.08;93.01
84413;BME280;74611;53.106;8.778;2024-02-26T02:31:19;100516.81;;;1.05;91.70
84413;BME280;74611;53.106;8.778;2024-02-26T02:33:44;100519.31;;;1.07;91.06
84413;BME280;74611;53.106;8.778;2024-02-26T02:36:10;100524.50;;;1.08;91.42
84413;BME280;74611;53.106;8.778;2024-02-26T02:38:37;100530.31;;;1.02;91.33
84413;BME280;74611;53.106;8.778;2024-02-26T02:41:03;100539.63;;;1.06;90.48
84413;BME280;74611;53.106;8.778;2024-02-26T02:43:29;100532.94;;;1.02;90.50
84413;BME280;74611;53.106;8.778;2024-02-26T02:45:54;100540.88;;;1.02;90.59
84413;BME280;74611;53.106;8.778;2024-02-26T02:48:19;100536.41;;;1.03;90.90
84413;BME280;74611;53.106;8.778;2024-02-26T02:50:45;100533.44;;;0.96;91.79
84413;BME280;74611;53.106;8.778;2024-02-26T02:53:11;100529.84;;;0.97;91.61
84413;BME280;74611;53.106;8.778;2024-02-26T02:55:37;100527.84;;;0.90;92.65
84413;BME280;74611;53.106;8.778;2024-02-26T02:58:02;100531.84;;;0.84;93.58
84413;BME280;74611;53.106;8.778;2024-02-26T03:00:28;100530.44;;;0.80;93.07
84413;BME280;74611;53.106;8.778;2024-02-26T03:02:53;100540.72;;;0.83;91.85
84413;BME280;74611;53.106;8.778;2024-02-26T03:05:19;100536.53;;;0.81;92.66
84413;BME280;74611;53.106;8.778;2024-02-26T03:07:44;100538.63;;;0.77;92.16
84413;BME280;74611;53.106;8.778;2024-02-26T03:10:10;100541.44;;;0.85;91.83
84413;BME280;74611;53.106;8.778;2024-02-26T03:12:35;100552.28;;;0.82;91.67
84413;BME280;74611;53.106;8.778;2024-02-26T03:15:01;100555.00;;;0.81;92.64
84413;BME280;74611;53.106;8.778;2024-02-26T03:17:28;100555.84;;;0.81;91.77
84413;BME280;74611;53.106;8.778;2024-02-26T03:19:54;100550.72;;;0.80;92.44
84413;BME280;74611;53.106;8.778;2024-02-26T03:22:20;100558.88;;;0.76;93.13
84413;BME280;74611;53.106;8.778;2024-02-26T03:24:46;100559.72;;;0.77;91.80
84413;BME280;74611;53.106;8.778;2024-02-26T03:27:12;100570.75;;;0.82;91.08
84413;BME280;74611;53.106;8.778;2024-02-26T03:29:38;100571.59;;;0.83;91.64
84413;BME280;74611;53.106;8.778;2024-02-26T03:32:05;100573.91;;;0.76;92.71
84413;BME280;74611;53.106;8.778;2024-02-26T03:34:31;100576.53;;;0.76;91.82
84413;BME280;74611;53.106;8.778;2024-02-26T03:36:57;100582.19;;;0.71;93.77
84413;BME280;74611;53.106;8.778;2024-02-26T03:39:22;100587.34;;;0.73;93.25
84413;BME280;74611;53.106;8.778;2024-02-26T03:41:48;100588.75;;;0.77;91.21
84413;BME280;74611;53.106;8.778;2024-02-26T03:44:14;100591.78;;;0.72;92.04
84413;BME280;74611;53.106;8.778;2024-02-26T03:46:40;100599.44;;;0.75;91.69
84413;BME280;74611;53.106;8.778;2024-02-26T03:49:08;100598.13;;;0.70;92.10
84413;BME280;74611;53.106;8.778;2024-02-26T03:51:33;100598.28;;;0.68;91.66
84413;BME280;74611;53.106;8.778;2024-02-26T03:53:59;100604.97;;;0.72;91.50
84413;BME280;74611;53.106;8.778;2024-02-26T03:56:25;100609.16;;;0.75;90.97
84413;BME280;74611;53.106;8.778;2024-02-26T03:58:51;100605.47;;;0.66;91.96
84413;BME280;74611;53.106;8.778;2024-02-26T04:01:16;100597.44;;;0.68;92.63
84413;BME280;74611;53.106;8.778;2024-02-26T04:03:42;100601.28;;;0.64;93.01
84413;BME280;74611;53.106;8.778;2024-02-26T04:06:09;100608.25;;;0.65;92.17
84413;BME280;74611;53.106;8.778;2024-02-26T04:08:46;100608.34;;;0.63;92.82
84413;BME280;74611;53.106;8.778;2024-02-26T04:11:12;100608.34;;;0.63;94.07
84413;BME280;74611;53.106;8.778;2024-02-26T04:13:38;100605.16;;;0.60;93.06
84413;BME280;74611;53.106;8.778;2024-02-26T04:16:05;100611.97;;;0.62;91.81
84413;BME280;74611;53.106;8.778;2024-02-26T04:18:31;100614.84;;;0.59;91.70
84413;BME280;74611;53.106;8.778;2024-02-26T04:20:57;100613.78;;;0.62;94.69
84413;BME280;74611;53.106;8.778;2024-02-26T04:23:22;100617.50;;;0.59;95.04
84413;BME280;74611;53.106;8.778;2024-02-26T04:25:48;100618.34;;;0.60;92.17
84413;BME280;74611;53.106;8.778;2024-02-26T04:28:14;100629.47;;;0.63;91.92
84413;BME280;74611;53.106;8.778;2024-02-26T04:30:40;100626.00;;;0.63;93.35
84413;BME280;74611;53.106;8.778;2024-02-26T04:33:06;100620.59;;;0.64;91.80
84413;BME280;74611;53.106;8.778;2024-02-26T04:35:31;100619.63;;;0.65;92.96
84413;BME280;74611;53.106;8.778;2024-02-26T04:37:57;100633.19;;;0.61;92.55
84413;BME280;74611;53.106;8.778;2024-02-26T04:40:23;100637.66;;;0.60;92.91
84413;BME280;74611;53.106;8.778;2024-02-26T04:42:49;100635.81;;;0.61;93.77
84413;BME280;74611;53.106;8.778;2024-02-26T04:45:15;100635.09;;;0.59;93.35
84413;BME280;74611;53.106;8.778;2024-02-26T04:47:41;100643.03;;;0.59;93.01
84413;BME280;74611;53.106;8.778;2024-02-26T04:50:07;100641.22;;;0.59;91.76
84413;BME280;74611;53.106;8.778;2024-02-26T04:52:32;100651.91;;;0.58;93.91
84413;BME280;74611;53.106;8.778;2024-02-26T04:54:58;100651.91;;;0.58;93.31
84413;BME280;74611;53.106;8.778;2024-02-26T04:57:25;100658.84;;;0.59;93.18
84413;BME280;74611;53.106;8.778;2024-02-26T04:59:51;100650.94;;;0.59;94.09
84413;BME280;74611;53.106;8.778;2024-02-26T05:02:17;100661.38;;;0.60;92.89
84413;BME280;74611;53.106;8.778;2024-02-26T05:04:43;100658.13;;;0.57;93.77
84413;BME280;74611;53.106;8.778;2024-02-26T05:07:09;100659.69;;;0.59;93.61
84413;BME280;74611;53.106;8.778;2024-02-26T05:09:35;100663.41;;;0.57;93.43
84413;BME280;74611;53.106;8.778;2024-02-26T05:12:00;100662.47;;;0.58;93.58
84413;BME280;74611;53.106;8.778;2024-02-26T05:14:26;100664.25;;;0.57;93.71
84413;BME280;74611;53.106;8.778;2024-02-26T05:16:51;100665.34;;;0.55;94.14
84413;BME280;74611;53.106;8.778;2024-02-26T05:19:17;100672.88;;;0.59;93.39
84413;BME280;74611;53.106;8.778;2024-02-26T05:21:42;100676.50;;;0.58;93.63
84413;BME280;74611;53.106;8.778;2024-02-26T05:24:10;100678.44;;;0.56;93.69
84413;BME280;74611;53.106;8.778;2024-02-26T05:26:35;100677.59;;;0.56;95.31
84413;BME280;74611;53.106;8.778;2024-02-26T05:29:01;100683.44;;;0.59;92.70
84413;BME280;74611;53.106;8.778;2024-02-26T05:31:27;100690.28;;;0.62;91.66
84413;BME280;74611;53.106;8.778;2024-02-26T05:33:53;100693.75;;;0.62;92.77
84413;BME280;74611;53.106;8.778;2024-02-26T05:36:22;100691.34;;;0.59;92.02
84413;BME280;74611;53.106;8.778;2024-02-26T05:38:49;100694.13;;;0.58;93.14
84413;BME280;74611;53.106;8.778;2024-02-26T05:41:18;100700.94;;;0.60;92.95
84413;BME280;74611;53.106;8.778;2024-02-26T05:43:49;100693.63;;;0.64;91.80
84413;BME280;74611;53.106;8.778;2024-02-26T05:46:19;100690.13;;;0.63;92.74
84413;BME280;74611;53.106;8.778;2024-02-26T05:48:50;100684.84;;;0.63;93.00
84413;BME280;74611;53.106;8.778;2024-02-26T05:51:16;100702.09;;;0.67;92.27
84413;BME280;74611;53.106;8.778;2024-02-26T05:53:42;100693.38;;;0.67;93.00
84413;BME280;74611;53.106;8.778;2024-02-26T05:56:08;100693.47;;;0.65;93.38
84413;BME280;74611;53.106;8.778;2024-02-26T05:58:33;100699.22;;;0.70;91.58
84413;BME280;74611;53.106;8.778;2024-02-26T06:00:59;100701.88;;;0.70;92.96
84413;BME280;74611;53.106;8.778;2024-02-26T06:03:27;100695.75;;;0.70;94.13
84413;BME280;74611;53.106;8.778;2024-02-26T06:05:53;100697.31;;;0.72;92.86
84413;BME280;74611;53.106;8.778;2024-02-26T06:08:18;100699.81;;;0.74;94.79
84413;BME280;74611;53.106;8.778;2024-02-26T06:10:44;100707.72;;;0.74;94.39
84413;BME280;74611;53.106;8.778;2024-02-26T06:13:10;100699.00;;;0.73;93.34
84413;BME280;74611;53.106;8.778;2024-02-26T06:15:35;100705.69;;;0.77;93.50
84413;BME280;74611;53.106;8.778;2024-02-26T06:18:01;100710.13;;;0.77;92.01
84413;BME280;74611;53.106;8.778;2024-02-26T06:20:26;100710.97;;;0.77;94.65
84413;BME280;74611;53.106;8.778;2024-02-26T06:22:52;100721.25;;;0.81;93.69
84413;BME280;74611;53.106;8.778;2024-02-26T06:25:18;100721.00;;;0.84;93.06
84413;BME280;74611;53.106;8.778;2024-02-26T06:27:43;100718.84;;;0.89;92.84
84413;BME280;74611;53.106;8.778;2024-02-26T06:30:09;100730.13;;;0.91;92.38
84413;BME280;74611;53.106;8.778;2024-02-26T06:32:37;100730.81;;;0.93;92.26
84413;BME280;74611;53.106;8.778;2024-02-26T06:35:03;100731.53;;;0.95;92.54
84413;BME280;74611;53.106;8.778;2024-02-26T06:37:35;100734.31;;;0.93;92.84
84413;BME280;74611;53.106;8.778;2024-02-26T06:40:02;100741.84;;;0.98;93.30
84413;BME280;74611;53.106;8.778;2024-02-26T06:42:32;100744.34;;;0.99;92.83
84413;BME280;74611;53.106;8.778;2024-02-26T06:44:58;100748.53;;;1.02;93.31
84413;BME280;74611;53.106;8.778;2024-02-26T06:47:23;100749.25;;;1.04;92.01
84413;BME280;74611;53.106;8.778;2024-02-26T06:49:49;100756.34;;;1.03;92.48
84413;BME280;74611;53.106;8.778;2024-02-26T06:52:14;100756.19;;;1.05;94.45
84413;BME280;74611;53.106;8.778;2024-02-26T06:54:40;100760.75;;;1.03;93.43
84413;BME280;74611;53.106;8.778;2024-02-26T06:57:05;100755.97;;;1.08;92.96
84413;BME280;74611;53.106;8.778;2024-02-26T06:59:31;100766.38;;;1.09;93.00
84413;BME280;74611;53.106;8.778;2024-02-26T07:01:56;100769.72;;;1.11;92.40
84413;BME280;74611;53.106;8.778;2024-02-26T07:04:22;100774.78;;;1.14;92.82
84413;BME280;74611;53.106;8.778;2024-02-26T07:06:48;100782.31;;;1.19;93.92
84413;BME280;74611;53.106;8.778;2024-02-26T07:09:14;100781.22;;;1.21;93.46
84413;BME280;74611;53.106;8.778;2024-02-26T07:11:39;100781.34;;;1.20;92.11
84413;BME280;74611;53.106;8.778;2024-02-26T07:14:09;100786.25;;;1.24;94.28
84413;BME280;74611;53.106;8.778;2024-02-26T07:16:35;100789.97;;;1.22;92.71
84413;BME280;74611;53.106;8.778;2024-02-26T07:19:01;100788.63;;;1.27;93.29
84413;BME280;74611;53.106;8.778;2024-02-26T07:21:27;100786.72;;;1.29;93.31
84413;BME280;74611;53.106;8.778;2024-02-26T07:23:53;100798.22;;;1.28;92.57
84413;BME280;74611;53.106;8.778;2024-02-26T07:26:19;100799.16;;;1.38;93.91
84413;BME280;74611;53.106;8.778;2024-02-26T07:28:45;100802.75;;;1.37;93.32
84413;BME280;74611;53.106;8.778;2024-02-26T07:31:11;100798.88;;;1.41;94.53
84413;BME280;74611;53.106;8.778;2024-02-26T07:33:36;100804.16;;;1.41;93.22
84413;BME280;74611;53.106;8.778;2024-02-26T07:36:02;100802.47;;;1.51;94.62
84413;BME280;74611;53.106;8.778;2024-02-26T07:38:28;100800.19;;;1.47;92.36
84413;BME280;74611;53.106;8.778;2024-02-26T07:40:54;100810.75;;;1.47;91.93
84413;BME280;74611;53.106;8.778;2024-02-26T07:43:20;100804.00;;;1.54;93.45
84413;BME280;74611;53.106;8.778;2024-02-26T07:45:46;100807.22;;;1.58;92.71
84413;BME280;74611;53.106;8.778;2024-02-26T07:48:12;100802.50;;;1.61;93.64
84413;BME280;74611;53.106;8.778;2024-02-26T07:50:39;100812.97;;;1.63;93.44
84413;BME280;74611;53.106;8.778;2024-02-26T07:53:06;100810.34;;;1.63;92.49
84413;BME280;74611;53.106;8.778;2024-02-26T07:55:32;100815.47;;;1.64;91.14
84413;BME280;74611;53.106;8.778;2024-02-26T07:57:58;100822.06;;;1.70;92.07
84413;BME280;74611;53.106;8.778;2024-02-26T08:00:24;100818.06;;;1.75;93.63
84413;BME280;74611;53.106;8.778;2024-02-26T08:02:49;100814.44;;;1.76;93.84
84413;BME280;74611;53.106;8.778;2024-02-26T08:05:15;100818.78;;;1.77;92.30
84413;BME280;74611;53.106;8.778;2024-02-26T08:07:40;100817.81;;;1.78;91.49
84413;BME280;74611;53.106;8.778;2024-02-26T08:10:07;100818.25;;;1.83;92.52
84413;BME280;74611;53.106;8.778;2024-02-26T08:12:32;100820.88;;;1.83;91.70
84413;BME280;74611;53.106;8.778;2024-02-26T08:14:59;100816.31;;;1.85;91.13
84413;BME280;74611;53.106;8.778;2024-02-26T08:17:25;100826.63;;;1.88;91.30
84413;BME280;74611;53.106;8.778;2024-02-26T08:19:52;100822.75;;;1.92;92.28
84413;BME280;74611;53.106;8.778;2024-02-26T08:22:22;100829.59;;;1.95;92.15
84413;BME280;74611;53.106;8.778;2024-02-26T08:24:48;100832.94;;;1.97;92.41
84413;BME280;74611;53.106;8.778;2024-02-26T08:27:13;100830.75;;;2.02;92.87
84413;BME280;74611;53.106;8.778;2024-02-26T08:29:39;100836.16;;;2.00;92.08
84413;BME280;74611;53.106;8.778;2024-02-26T08:32:05;100844.81;;;2.02;92.14
84413;BME280;74611;53.106;8.778;2024-02-26T08:34:32;100837.47;;;2.06;92.18
84413;BME280;74611;53.106;8.778;2024-02-26T08:36:58;100837.63;;;2.14;94.09
84413;BME280;74611;53.106;8.778;2024-02-26T08:39:23;100847.38;;;2.13;93.35
84413;BME280;74611;53.106;8.778;2024-02-26T08:41:51;100851.97;;;2.11;91.88
84413;BME280;74611;53.106;8.778;2024-02-26T08:44:17;100853.38;;;2.15;92.87
84413;BME280;74611;53.106;8.778;2024-02-26T08:46:43;100862.75;;;2.19;92.52
84413;BME280;74611;53.106;8.778;2024-02-26T08:49:08;100860.09;;;2.19;92.08
84413;BME280;74611;53.106;8.778;2024-02-26T08:51:34;100858.88;;;2.23;92.43
84413;BME280;74611;53.106;8.778;2024-02-26T08:53:59;100860.41;;;2.26;93.30
84413;BME280;74611;53.106;8.778;2024-02-26T08:56:25;100863.75;;;2.28;92.22
84413;BME280;74611;53.106;8.778;2024-02-26T08:58:51;100851.09;;;2.32;93.29
84413;BME280;74611;53.106;8.778;2024-02-26T09:01:19;100862.53;;;2.32;91.68
84413;BME280;74611;53.106;8.778;2024-02-26T09:03:45;100866.44;;;2.38;93.10
84413;BME280;74611;53.106;8.778;2024-02-26T09:06:10;100864.66;;;2.38;92.86
84413;BME280;74611;53.106;8.778;2024-02-26T09:08:37;100864.41;;;2.41;92.31
84413;BME280;74611;53.106;8.778;2024-02-26T09:11:03;100867.84;;;2.42;91.46
84413;BME280;74611;53.106;8.778;2024-02-26T09:13:29;100874.31;;;2.49;92.94
84413;BME280;74611;53.106;8.778;2024-02-26T09:15:54;100867.06;;;2.51;92.12
84413;BME280;74611;53.106;8.778;2024-02-26T09:18:20;100872.66;;;2.57;93.26
84413;BME280;74611;53.106;8.778;2024-02-26T09:20:46;100872.28;;;2.62;93.34
84413;BME280;74611;53.106;8.778;2024-02-26T09:23:11;100874.06;;;2.61;91.69
84413;BME280;74611;53.106;8.778;2024-02-26T09:25:37;100874.13;;;2.71;93.80
84413;BME280;74611;53.106;8.778;2024-02-26T09:28:03;100884.84;;;2.69;92.57
84413;BME280;74611;53.106;8.778;2024-02-26T09:30:29;100894.34;;;2.72;92.28
84413;BME280;74611;53.106;8.778;2024-02-26T09:32:54;100886.25;;;2.73;91.19
84413;BME280;74611;53.106;8.778;2024-02-26T09:35:20;100891.56;;;2.83;92.68
84413;BME280;74611;53.106;8.778;2024-02-26T09:37:46;100893.72;;;2.89;92.09
84413;BME280;74611;53.106;8.778;2024-02-26T09:40:14;100887.16;;;2.93;91.99
84413;BME280;74611;53.106;8.778;2024-02-26T09:42:44;100896.97;;;3.02;92.95
84413;BME280;74611;53.106;8.778;2024-02-26T09:45:12;100890.66;;;3.03;92.22
84413;BME280;74611;53.106;8.778;2024-02-26T09:47:41;100893.22;;;3.14;91.69
84413;BME280;74611;53.106;8.778;2024-02-26T09:50:09;100897.84;;;3.22;91.99
84413;BME280;74611;53.106;8.778;2024-02-26T09:52:37;100898.97;;;3.29;92.81
84413;BME280;74611;53.106;8.778;2024-02-26T09:55:04;100905.41;;;3.36;92.52
84413;BME280;74611;53.106;8.778;2024-02-26T09:57:31;100904.72;;;3.53;93.50
84413;BME280;74611;53.106;8.778;2024-02-26T09:59:58;100908.63;;;3.49;92.81
84413;BME280;74611;53.106;8.778;2024-02-26T10:02:24;100905.69;;;3.61;92.96
84413;BME280;74611;53.106;8.778;2024-02-26T10:04:51;100908.63;;;3.68;92.55
84413;BME280;74611;53.106;8.778;2024-02-26T10:07:19;100916.88;;;3.74;91.84
84413;BME280;74611;53.106;8.778;2024-02-26T10:09:46;100921.66;;;3.80;91.34
84413;BME280;74611;53.106;8.778;2024-02-26T10:12:11;100919.38;;;3.86;91.05
84413;BME280;74611;53.106;8.778;2024-02-26T10:14:37;100915.06;;;3.94;92.25
84413;BME280;74611;53.106;8.778;2024-02-26T10:17:07;100924.25;;;4.09;91.77
84413;BME280;74611;53.106;8.778;2024-02-26T10:19:33;100924.00;;;4.12;91.40
84413;BME280;74611;53.106;8.778;2024-02-26T10:22:00;100927.88;;;4.37;91.42
84413;BME280;74611;53.106;8.778;2024-02-26T10:24:28;100927.88;;;4.37;90.94
84413;BME280;74611;53.106;8.778;2024-02-26T10:26:54;100930.38;;;4.48;91.13
84413;BME280;74611;53.106;8.778;2024-02-26T10:29:21;100933.25;;;4.64;92.11
84413;BME280;74611;53.106;8.778;2024-02-26T10:31:47;100927.63;;;4.77;91.58
84413;BME280;74611;53.106;8.778;2024-02-26T10:34:14;100931.28;;;5.03;92.59
84413;BME280;74611;53.106;8.778;2024-02-26T10:36:40;100934.09;;;5.01;91.40
84413;BME280;74611;53.106;8.778;2024-02-26T10:39:11;100938.44;;;5.02;91.42
84413;BME280;74611;53.106;8.778;2024-02-26T10:41:37;100938.16;;;5.32;92.18
84413;BME280;74611;53.106;8.778;2024-02-26T10:44:04;100941.00;;;5.21;90.50
84413;BME280;74611;53.106;8.778;2024-02-26T10:46:29;100934.25;;;5.27;90.54
84413;BME280;74611;53.106;8.778;2024-02-26T10:48:58;100950.88;;;5.29;89.90
84413;BME280;74611;53.106;8.778;2024-02-26T10:51:27;100945.69;;;5.37;89.99
84413;BME280;74611;53.106;8.778;2024-02-26T10:53:55;100947.59;;;5.45;90.25
84413;BME280;74611;53.106;8.778;2024-02-26T10:56:26;100948.66;;;5.52;90.23
84413;BME280;74611;53.106;8.778;2024-02-26T10:58:55;100955.19;;;5.57;89.88
84413;BME280;74611;53.106;8.778;2024-02-26T11:01:22;100951.47;;;5.68;90.29
84413;BME280;74611;53.106;8.778;2024-02-26T11:03:51;100956.59;;;5.79;89.69
84413;BME280;74611;53.106;8.778;2024-02-26T11:06:18;100961.34;;;5.85;89.72
84413;BME280;74611;53.106;8.778;2024-02-26T11:08:45;100957.69;;;5.86;90.15
84413;BME280;74611;53.106;8.778;2024-02-26T11:11:13;100962.84;;;5.87;90.01
84413;BME280;74611;53.106;8.778;2024-02-26T11:13:40;100967.88;;;5.90;89.63
84413;BME280;74611;53.106;8.778;2024-02-26T11:16:11;100970.03;;;6.04;89.84
84413;BME280;74611;53.106;8.778;2024-02-26T11:18:39;100970.41;;;6.09;89.78
84413;BME280;74611;53.106;8.778;2024-02-26T11:21:07;100965.84;;;6.20;89.96
84413;BME280;74611;53.106;8.778;2024-02-26T11:23:34;100961.94;;;6.32;89.92
84413;BME280;74611;53.106;8.778;2024-02-26T11:26:06;100968.63;;;6.36;89.77
84413;BME280;74611;53.106;8.778;2024-02-26T11:28:32;100973.88;;;6.45;89.44
84413;BME280;74611;53.106;8.778;2024-02-26T11:31:00;100965.78;;;6.55;89.50
84413;BME280;74611;53.106;8.778;2024-02-26T11:33:28;100971.47;;;6.60;89.38
84413;BME280;74611;53.106;8.778;2024-02-26T11:35:54;100978.16;;;6.64;87.60
84413;BME280;74611;53.106;8.778;2024-02-26T11:38:21;100988.09;;;6.79;90.79
84413;BME280;74611;53.106;8.778;2024-02-26T11:40:47;100974.59;;;6.81;90.29
84413;BME280;74611;53.106;8.778;2024-02-26T11:43:12;100973.19;;;6.95;89.79
84413;BME280;74611;53.106;8.778;2024-02-26T11:48:14;100964.63;;;7.09;90.32
84413;BME280;74611;53.106;8.778;2024-02-26T11:50:42;100970.94;;;7.08;88.04
84413;BME280;74611;53.106;8.778;2024-02-26T11:53:26;100970.63;;;7.11;86.72
84413;BME280;74611;53.106;8.778;2024-02-26T11:58:43;100977.75;;;7.36;89.69
84413;BME280;74611;53.106;8.778;2024-02-26T12:04:13;100982.75;;;7.39;88.01
84413;BME280;74611;53.106;8.778;2024-02-26T12:06:56;100991.47;;;7.49;89.78
84413;BME280;74611;53.106;8.778;2024-02-26T12:09:37;100989.28;;;7.52;88.50
84413;BME280;74611;53.106;8.778;2024-02-26T12:12:05;100990.81;;;7.55;85.99
84413;BME280;74611;53.106;8.778;2024-02-26T12:14:52;100993.53;;;7.71;89.62
84413;BME280;74611;53.106;8.778;2024-02-26T12:17:25;100995.34;;;7.54;85.37
84413;BME280;74611;53.106;8.778;2024-02-26T12:19:52;101000.91;;;7.77;88.45
84413;BME280;74611;53.106;8.778;2024-02-26T12:22:19;101002.41;;;7.80;86.19
84413;BME280;74611;53.106;8.778;2024-02-26T12:24:45;101007.94;;;7.78;84.18
84413;BME280;74611;53.106;8.778;2024-02-26T12:27:11;101004.44;;;7.86;88.58
84413;BME280;74611;53.106;8.778;2024-02-26T12:29:37;101005.63;;;7.91;86.10
84413;BME280;74611;53.106;8.778;2024-02-26T12:32:04;101009.09;;;7.84;87.16
84413;BME280;74611;53.106;8.778;2024-02-26T12:34:31;101014.00;;;8.04;89.83
84413;BME280;74611;53.106;8.778;2024-02-26T12:36:57;101013.81;;;7.98;86.38
84413;BME280;74611;53.106;8.778;2024-02-26T12:39:23;101014.31;;;8.09;88.03
84413;BME280;74611;53.106;8.778;2024-02-26T12:41:49;101020.69;;;8.08;86.26
84413;BME280;74611;53.106;8.778;2024-02-26T12:44:24;101025.81;;;7.94;83.94
84413;BME280;74611;53.106;8.778;2024-02-26T12:46:49;101022.31;;;7.93;84.59
84413;BME280;74611;53.106;8.778;2024-02-26T12:49:15;101025.53;;;8.21;86.84
84413;BME280;74611;53.106;8.778;2024-02-26T12:51:44;101031.19;;;8.18;86.17
84413;BME280;74611;53.106;8.778;2024-02-26T12:54:10;101035.25;;;8.46;86.85
84413;BME280;74611;53.106;8.778;2024-02-26T12:56:37;101033.44;;;8.47;88.41
84413;BME280;74611;53.106;8.778;2024-02-26T12:59:03;101040.28;;;8.49;89.10
84413;BME280;74611;53.106;8.778;2024-02-26T13:01:29;101044.28;;;8.45;86.01
84413;BME280;74611;53.106;8.778;2024-02-26T13:03:56;101046.47;;;8.42;85.45